Aérodrome :
LOGIN :

S'inscrire | Disclaimer

   EN    FR    IT 

 










Légende :    VFR   VFR Marginal   IFR   IFR Intensif   IFR Très Intensif
Visi : 
Plafond : 
>= 8 km
>= 3000ft
5 à 8 km
1000 à 3000 ft
1500m à 5 km
500 à 1000 ft
800 à 1500m
200 à 500 ft
< 800m
< 200 ft
Symboles :   Orages  Brouillard  Fortes neiges  Fortes précipitations  Vent > 20 kt
SIGMETs :   Divers  Orages  Givrage  Turbulence  Onde Orograph.  Cendres Volcan.






- Altitude de l'aérodrome : 359 ft
- Code IATA : BVA


LFOB - Beauvais

DERNIER METAR :
  • 140130Z AUTO 16015KT 9999 -RA OVC014/// ///TCU 06/04 Q0992 TEMPO 3000 RA BKN007 OVC013

METARs EXPIRÉS :
  • 140100Z AUTO 15017KT 9999 -RA OVC017/// ///CB 06/04 Q0992 TEMPO 3000 RA BKN007 OVC013
  • 140030Z AUTO 15013KT 9999 RA OVC017/// ///CB 06/05 Q0993 TEMPO 3000 RA BKN007 OVC013
  • 140000Z AUTO 14013KT 9999 -RA BKN018/// BKN037/// OVC046/// ///TCU 06/04 Q0993 TEMPO 3000 RA BKN007 OVC013
  • 132330Z AUTO 15013KT 9999 -RA SCT018/// SCT034/// BKN056/// ///TCU 06/04 Q0994 TEMPO 3000 RA BKN007 OVC013
  • 132300Z AUTO 16014KT 9999 FEW048 BKN082 BKN130 07/04 Q0994 TEMPO 3000 RA BKN007 OVC013

TAF TAF LFOB
Valide du 14 à 00h jusqu'au 15 à 00h UTC


132300Z 1400/1424 16013KT 9999 BKN013
TEMPO 1400/1404 3000 RA BKN007 OVC013
BECMG 1408/1411 BKN020
BECMG 1416/1418 VRB02KT
BECMG 1421/1423 0300 FG VV///
ATIS : +33 3 44 11 49 28



MET'MAP, la Météo Aéronautique d'un coup d'oeil ! - Copyright ORBIFLY Décembre 2007 - Disclaimer

ORBIFLY MET'MAP TEAM :

Programmation & Développement : Alexandra Zaïnal
Conception & Développement : Baudouin d'Aumeries
Co-Programmation & Développement : Marc-Olivier Méhu
Soutien technique & logistique : Manuel Goepfert

Contact : metmap@orbifly.com




SOURCES & CREDITS :

   NOAA